createdAt,value
2023-05-09T00:00:16.951Z,94.69
2023-05-09T00:01:49.128Z,94.83
2023-05-09T00:03:21.525Z,94.59
2023-05-09T00:04:53.640Z,94.72
2023-05-09T00:06:27.280Z,94.63
2023-05-09T00:07:59.532Z,94.57
2023-05-09T00:09:31.710Z,94.37
2023-05-09T00:11:04.098Z,94.23
2023-05-09T00:12:36.258Z,94.15
2023-05-09T00:14:08.806Z,94.31
2023-05-09T00:15:40.988Z,94.21
2023-05-09T00:17:16.056Z,93.89
2023-05-09T00:18:48.155Z,93.99
2023-05-09T00:20:20.606Z,93.90
2023-05-09T00:21:52.866Z,94.00
2023-05-09T00:23:25.028Z,94.12
2023-05-09T00:24:57.163Z,94.01
2023-05-09T00:26:35.864Z,93.78
2023-05-09T00:28:08.194Z,94.21
2023-05-09T00:29:40.274Z,94.17
2023-05-09T00:31:12.429Z,94.32
2023-05-09T00:32:44.682Z,94.37
2023-05-09T00:34:17.001Z,94.77
2023-05-09T00:35:49.133Z,94.48
2023-05-09T00:37:21.595Z,94.48
2023-05-09T00:38:53.839Z,94.45
2023-05-09T00:40:26.399Z,94.47
2023-05-09T00:41:58.631Z,94.41
2023-05-09T00:43:30.865Z,94.30
2023-05-09T00:45:03.472Z,94.10
2023-05-09T00:46:36.192Z,94.22
2023-05-09T00:48:11.333Z,94.02
2023-05-09T00:49:43.637Z,94.19
2023-05-09T00:51:16.198Z,93.95
2023-05-09T00:52:48.333Z,93.87
2023-05-09T00:54:20.728Z,93.94
2023-05-09T00:57:38.034Z,93.80
2023-05-09T00:59:10.529Z,93.50
2023-05-09T01:00:43.466Z,93.40
2023-05-09T01:02:19.843Z,93.43
2023-05-09T01:03:52.285Z,93.14
2023-05-09T01:05:29.281Z,93.10
2023-05-09T01:07:23.560Z,93.13
2023-05-09T01:09:07.891Z,92.96
2023-05-09T01:10:46.601Z,93.03
2023-05-09T01:12:30.804Z,93.31
2023-05-09T01:14:31.306Z,93.26
2023-05-09T01:16:35.684Z,93.12
2023-05-09T01:18:46.678Z,93.33
2023-05-09T01:20:47.359Z,93.66
2023-05-09T01:22:21.347Z,93.69
2023-05-09T01:24:21.186Z,93.45
2023-05-09T01:26:06.842Z,94.11
2023-05-09T01:28:19.728Z,93.90
2023-05-09T01:29:59.291Z,94.22
2023-05-09T01:31:32.973Z,94.04
2023-05-09T01:33:07.524Z,94.43
2023-05-09T01:34:41.048Z,94.48
2023-05-09T01:36:16.815Z,94.79
2023-05-09T01:37:50.090Z,94.50
2023-05-09T01:39:23.118Z,94.34
2023-05-09T01:40:55.740Z,94.05
2023-05-09T01:42:31.107Z,94.35
2023-05-09T01:44:05.944Z,94.10
2023-05-09T01:45:41.213Z,93.93
2023-05-09T01:47:13.634Z,94.09
2023-05-09T01:48:46.229Z,94.28
2023-05-09T01:50:19.626Z,94.32
2023-05-09T01:51:51.645Z,94.08
2023-05-09T01:53:24.884Z,94.30
2023-05-09T01:54:57.182Z,94.47
2023-05-09T01:56:29.715Z,94.58
2023-05-09T01:58:02.063Z,94.77
2023-05-09T01:59:35.191Z,94.64
2023-05-09T02:02:39.813Z,94.63
2023-05-09T02:04:12.131Z,94.87
2023-05-09T02:05:44.993Z,94.88
2023-05-09T02:07:17.268Z,95.06
2023-05-09T02:08:49.808Z,95.24
2023-05-09T02:10:23.047Z,95.16
2023-05-09T02:11:55.305Z,94.70
2023-05-09T02:13:27.607Z,94.48
2023-05-09T02:15:00.147Z,94.74
2023-05-09T02:16:33.088Z,94.50
2023-05-09T02:18:05.344Z,94.54
2023-05-09T02:19:37.564Z,94.57
2023-05-09T02:21:09.871Z,94.31
2023-05-09T02:22:43.138Z,94.51
2023-05-09T02:24:15.538Z,94.42
2023-05-09T02:25:47.665Z,94.10
2023-05-09T02:27:20.285Z,94.32
2023-05-09T02:28:52.706Z,94.22
2023-05-09T02:30:25.690Z,94.50
2023-05-09T02:31:58.612Z,94.30
2023-05-09T02:33:31.323Z,94.44
2023-05-09T02:35:04.458Z,94.49
2023-05-09T02:36:36.707Z,94.38
2023-05-09T02:38:09.099Z,94.44
2023-05-09T02:39:41.388Z,94.26
2023-05-09T02:41:16.886Z,94.29
2023-05-09T02:42:49.153Z,94.29
2023-05-09T02:44:21.462Z,94.33
2023-05-09T02:45:53.628Z,94.17
2023-05-09T02:47:26.199Z,94.21
2023-05-09T02:48:58.387Z,94.13
2023-05-09T02:50:30.635Z,94.03
2023-05-09T02:52:02.735Z,94.04
2023-05-09T02:53:34.862Z,94.25
2023-05-09T02:55:07.894Z,94.20
2023-05-09T02:56:40.091Z,94.07
2023-05-09T02:58:14.746Z,94.13
2023-05-09T03:01:19.042Z,94.22
2023-05-09T03:02:51.317Z,94.60
2023-05-09T03:04:23.514Z,94.22
2023-05-09T03:05:55.792Z,94.31
2023-05-09T03:07:27.904Z,94.54
2023-05-09T03:09:00.024Z,94.32
2023-05-09T03:10:32.201Z,94.65
2023-05-09T03:12:04.687Z,94.60
2023-05-09T03:13:36.794Z,94.63
2023-05-09T03:15:09.358Z,94.47
2023-05-09T03:16:41.517Z,94.58
2023-05-09T03:18:13.709Z,94.48
2023-05-09T03:19:45.873Z,94.43
2023-05-09T03:21:18.252Z,94.65
2023-05-09T03:22:50.393Z,94.32
2023-05-09T03:24:27.049Z,94.26
2023-05-09T03:25:59.150Z,94.19
2023-05-09T03:27:31.292Z,94.27
2023-05-09T03:29:04.381Z,94.41
2023-05-09T03:30:37.116Z,93.99
2023-05-09T03:32:09.288Z,93.82
2023-05-09T03:33:41.505Z,94.05
2023-05-09T03:35:13.831Z,94.27
2023-05-09T03:36:46.236Z,94.52
2023-05-09T03:38:18.353Z,94.61
2023-05-09T03:39:50.590Z,94.55
2023-05-09T03:41:22.830Z,94.65
2023-05-09T03:42:54.886Z,94.51
2023-05-09T03:44:27.197Z,94.59
2023-05-09T03:45:59.444Z,94.74
2023-05-09T03:47:33.780Z,94.17
2023-05-09T03:49:05.887Z,94.28
2023-05-09T03:50:38.299Z,94.32
2023-05-09T03:52:10.838Z,93.62
2023-05-09T03:53:46.444Z,93.40
2023-05-09T03:55:19.015Z,93.77
2023-05-09T03:56:51.182Z,94.13
2023-05-09T03:58:23.259Z,94.43
2023-05-09T03:59:55.427Z,94.53
2023-05-09T04:01:30.565Z,94.58
2023-05-09T04:03:02.905Z,94.60
2023-05-09T04:04:35.120Z,94.58
2023-05-09T04:06:07.455Z,94.52
2023-05-09T04:07:39.570Z,94.53
2023-05-09T04:09:11.696Z,94.63
2023-05-09T04:10:43.869Z,94.50
2023-05-09T04:12:16.135Z,94.45
2023-05-09T04:13:48.313Z,94.62
2023-05-09T04:15:20.449Z,94.19
2023-05-09T04:16:54.738Z,94.20
2023-05-09T04:18:26.891Z,94.39
2023-05-09T04:19:58.998Z,94.65
2023-05-09T04:21:32.366Z,94.61
2023-05-09T04:23:04.558Z,94.31
2023-05-09T04:24:36.726Z,94.32
2023-05-09T04:26:10.181Z,93.91
2023-05-09T04:27:42.763Z,93.57
2023-05-09T04:29:14.968Z,93.87
2023-05-09T04:30:47.118Z,94.02
2023-05-09T04:32:23.763Z,94.32
2023-05-09T04:33:56.042Z,94.21
2023-05-09T04:35:28.494Z,94.13
2023-05-09T04:37:03.040Z,94.34
2023-05-09T04:38:35.945Z,94.28
2023-05-09T04:40:09.604Z,93.92
2023-05-09T04:41:44.147Z,94.08
2023-05-09T04:43:16.249Z,94.13
2023-05-09T04:44:49.848Z,93.94
2023-05-09T04:46:24.257Z,94.08
2023-05-09T04:47:57.730Z,94.49
2023-05-09T04:49:29.911Z,94.42
2023-05-09T04:51:02.682Z,94.83
2023-05-09T04:52:34.840Z,94.96
2023-05-09T04:54:07.240Z,94.75
2023-05-09T04:55:39.392Z,94.91
2023-05-09T04:57:17.772Z,94.29
2023-05-09T04:58:50.355Z,94.12
2023-05-09T05:00:22.501Z,94.56
2023-05-09T05:01:54.963Z,94.64
2023-05-09T05:03:27.317Z,94.65
2023-05-09T05:05:10.887Z,94.64
2023-05-09T05:06:44.004Z,94.66
2023-05-09T05:08:16.276Z,94.75
2023-05-09T05:09:48.489Z,94.52
2023-05-09T05:11:20.952Z,94.81
2023-05-09T05:12:53.119Z,94.84
2023-05-09T05:14:25.229Z,94.93
2023-05-09T05:15:58.852Z,95.45
2023-05-09T05:17:31.130Z,95.49
2023-05-09T05:19:03.495Z,95.40
2023-05-09T05:20:35.701Z,95.47
2023-05-09T05:22:07.769Z,95.01
2023-05-09T05:23:39.963Z,95.32
2023-05-09T05:25:12.713Z,94.87
2023-05-09T05:26:45.116Z,94.92
2023-05-09T05:28:17.381Z,94.66
2023-05-09T05:29:49.502Z,94.62
2023-05-09T05:31:25.083Z,94.74
2023-05-09T05:32:57.256Z,94.43
2023-05-09T05:34:29.404Z,94.68
2023-05-09T05:36:01.580Z,94.79
2023-05-09T05:37:33.759Z,94.96
2023-05-09T05:39:06.105Z,95.39
2023-05-09T05:40:38.226Z,95.31
2023-05-09T05:42:10.499Z,95.48
2023-05-09T05:43:42.590Z,95.43
2023-05-09T05:45:15.089Z,95.87
2023-05-09T05:46:47.468Z,95.95
2023-05-09T05:48:19.605Z,96.21
2023-05-09T05:49:51.763Z,96.06
2023-05-09T05:51:23.877Z,95.97
2023-05-09T05:52:55.992Z,96.11
2023-05-09T05:54:28.130Z,95.87
2023-05-09T05:56:00.335Z,95.85
2023-05-09T05:57:33.610Z,95.92
2023-05-09T05:59:05.717Z,95.79
2023-05-09T06:00:38.066Z,95.82
2023-05-09T06:02:10.204Z,95.75
2023-05-09T06:03:42.399Z,95.54
2023-05-09T06:05:14.819Z,95.63
2023-05-09T06:06:47.305Z,95.71
2023-05-09T06:08:19.459Z,95.93
2023-05-09T06:09:51.701Z,95.79
2023-05-09T06:11:23.989Z,95.75
2023-05-09T06:12:56.180Z,96.08
2023-05-09T06:14:28.337Z,95.68
2023-05-09T06:16:15.056Z,95.73
2023-05-09T06:17:47.699Z,95.65
2023-05-09T06:19:19.863Z,96.02
2023-05-09T06:20:52.077Z,95.98
2023-05-09T06:22:24.249Z,95.73
2023-05-09T06:25:31.380Z,96.01
2023-05-09T06:27:04.250Z,95.69
2023-05-09T06:28:36.450Z,95.30
2023-05-09T06:30:23.966Z,95.59
2023-05-09T06:31:57.343Z,95.69
2023-05-09T06:33:29.541Z,95.35
2023-05-09T06:35:01.744Z,95.11
2023-05-09T06:36:34.481Z,94.97
2023-05-09T06:38:07.412Z,95.32
2023-05-09T06:39:39.596Z,95.00
2023-05-09T06:41:11.908Z,95.02
2023-05-09T06:42:43.970Z,95.41
2023-05-09T06:44:16.060Z,95.80
2023-05-09T06:45:48.210Z,95.89
2023-05-09T06:47:20.391Z,95.91
2023-05-09T06:48:52.459Z,96.02
2023-05-09T06:50:24.560Z,96.24
2023-05-09T06:51:56.637Z,96.19
2023-05-09T06:53:28.841Z,96.53
2023-05-09T06:55:01.034Z,96.38
2023-05-09T06:56:33.233Z,96.22
2023-05-09T06:58:05.317Z,96.22
2023-05-09T06:59:37.453Z,95.97
2023-05-09T07:01:09.693Z,96.13
2023-05-09T07:02:42.555Z,95.95
2023-05-09T07:04:14.800Z,95.58
2023-05-09T07:05:47.075Z,95.85
2023-05-09T07:07:19.248Z,96.18
2023-05-09T07:08:51.495Z,96.43
2023-05-09T07:10:23.768Z,96.59
2023-05-09T07:13:30.869Z,96.81
2023-05-09T07:15:03.095Z,97.32
2023-05-09T07:16:37.450Z,96.90
2023-05-09T07:18:10.179Z,96.82
2023-05-09T07:19:42.364Z,97.05
2023-05-09T07:21:14.555Z,97.09
2023-05-09T07:22:46.702Z,96.68
2023-05-09T07:24:18.850Z,96.84
2023-05-09T07:25:56.952Z,95.93
2023-05-09T07:27:29.188Z,95.94
2023-05-09T07:29:01.252Z,95.94
2023-05-09T07:30:33.424Z,95.86
2023-05-09T07:32:05.746Z,96.36
2023-05-09T08:42:05.748Z,95.71
2023-05-09T08:43:39.056Z,95.09
2023-05-09T08:45:12.201Z,94.93
2023-05-09T08:46:45.078Z,95.10
2023-05-09T08:48:17.841Z,95.59
2023-05-09T08:49:50.794Z,95.21
2023-05-09T08:51:23.077Z,94.65
2023-05-09T08:52:55.301Z,94.38
2023-05-09T08:54:27.762Z,94.39
2023-05-09T08:56:01.827Z,94.46
2023-05-09T08:57:37.587Z,94.14
2023-05-09T08:59:10.546Z,95.13
2023-05-09T09:00:42.832Z,95.76
2023-05-09T09:02:15.125Z,96.01
2023-05-09T09:03:47.990Z,95.91
2023-05-09T09:05:40.073Z,95.94
2023-05-09T09:07:12.903Z,96.01
2023-05-09T09:08:45.208Z,96.09
2023-05-09T09:10:17.601Z,96.03
2023-05-09T09:11:49.927Z,95.43
2023-05-09T09:13:22.533Z,95.43
2023-05-09T09:14:56.430Z,94.88
2023-05-09T09:16:30.110Z,95.00
2023-05-09T09:18:27.690Z,94.46
2023-05-09T09:20:02.378Z,94.58
2023-05-09T09:21:34.673Z,94.92
2023-05-09T09:23:10.904Z,94.48
2023-05-09T09:24:43.113Z,93.88
2023-05-09T09:26:15.468Z,94.15
2023-05-09T09:27:47.560Z,93.99
2023-05-09T09:29:21.187Z,93.77
2023-05-09T09:30:53.440Z,93.74
2023-05-09T09:32:34.508Z,93.69
2023-05-09T09:34:06.672Z,94.00
2023-05-09T09:35:43.878Z,94.54
2023-05-09T09:37:24.277Z,94.50
2023-05-09T09:39:01.066Z,95.16
2023-05-09T09:40:33.353Z,94.27
2023-05-09T09:42:13.860Z,94.42
2023-05-09T09:43:46.737Z,94.69
2023-05-09T09:45:20.432Z,94.83
2023-05-09T09:46:54.999Z,95.15
2023-05-09T09:48:27.943Z,95.47
2023-05-09T09:50:16.116Z,95.18
2023-05-09T09:51:56.625Z,94.98
2023-05-09T09:53:31.534Z,95.13
2023-05-09T09:55:04.083Z,95.11
2023-05-09T09:56:44.365Z,95.00
2023-05-09T09:58:22.536Z,94.82
2023-05-09T10:00:04.453Z,94.45
2023-05-09T10:01:36.658Z,94.88
2023-05-09T10:03:16.492Z,94.91
2023-05-09T10:04:48.790Z,95.20
2023-05-09T10:06:21.062Z,95.23
2023-05-09T10:08:00.725Z,95.15
2023-05-09T10:09:34.098Z,95.12
2023-05-09T10:11:06.328Z,94.10
2023-05-09T10:12:38.392Z,94.36
2023-05-09T10:14:11.055Z,94.65
2023-05-09T10:15:53.090Z,94.58
2023-05-09T10:17:27.845Z,94.38
2023-05-09T10:19:00.257Z,94.75
2023-05-09T10:20:32.685Z,94.82
2023-05-09T10:22:10.559Z,94.95
2023-05-09T10:23:47.506Z,94.81
2023-05-09T10:25:26.502Z,94.66
2023-05-09T10:27:07.158Z,94.87
2023-05-09T10:28:41.117Z,94.49
2023-05-09T10:30:20.474Z,94.53
2023-05-09T10:31:56.003Z,94.41
2023-05-09T10:33:35.289Z,94.34
2023-05-09T10:35:09.266Z,94.43
2023-05-09T10:36:41.540Z,94.53
2023-05-09T10:38:14.350Z,94.59
2023-05-09T10:39:47.271Z,94.23
2023-05-09T10:41:22.352Z,94.38
2023-05-09T10:42:54.604Z,94.39
2023-05-09T10:44:27.523Z,94.37
2023-05-09T10:45:59.873Z,94.05
2023-05-09T10:47:33.698Z,93.93
2023-05-09T10:50:40.757Z,94.24
2023-05-09T10:52:12.970Z,93.77
2023-05-09T10:53:50.225Z,94.00
2023-05-09T10:55:22.908Z,94.06
2023-05-09T10:56:55.776Z,93.84
2023-05-09T10:58:33.934Z,93.58
2023-05-09T11:00:06.893Z,93.78
2023-05-09T11:01:39.952Z,93.23
2023-05-09T11:03:12.141Z,93.23
2023-05-09T11:04:44.738Z,93.59
2023-05-09T11:06:42.240Z,93.51
2023-05-09T11:08:28.324Z,93.88
2023-05-09T11:10:10.315Z,94.25
2023-05-09T11:11:52.220Z,94.60
2023-05-09T11:13:25.700Z,94.75
2023-05-09T11:15:05.662Z,94.72
2023-05-09T11:16:58.155Z,94.35
2023-05-09T11:18:33.580Z,94.10
2023-05-09T11:20:06.972Z,94.13
2023-05-09T11:21:38.961Z,93.83
2023-05-09T11:23:12.300Z,93.89
2023-05-09T11:24:48.733Z,93.71
2023-05-09T11:26:22.874Z,94.09
2023-05-09T11:27:59.567Z,94.34
2023-05-09T11:29:44.627Z,94.54
2023-05-09T11:31:18.122Z,94.61
2023-05-09T11:32:59.320Z,94.51
2023-05-09T11:34:31.510Z,94.72
2023-05-09T11:36:32.370Z,95.05
2023-05-09T11:38:06.315Z,95.71
2023-05-09T11:40:01.208Z,95.25
2023-05-09T11:41:53.553Z,95.08
2023-05-09T11:43:25.841Z,94.90
2023-05-09T11:44:59.168Z,95.06
2023-05-09T11:46:31.728Z,94.53
2023-05-09T11:48:09.669Z,94.89
2023-05-09T11:49:45.078Z,94.39
2023-05-09T11:51:20.634Z,94.46
2023-05-09T11:52:54.003Z,94.01
2023-05-09T11:54:26.034Z,94.06
2023-05-09T11:55:58.155Z,94.49
2023-05-09T11:57:30.615Z,94.51
2023-05-09T11:59:03.436Z,94.16
2023-05-09T12:00:37.659Z,93.94
2023-05-09T12:02:09.945Z,93.76
2023-05-09T12:03:45.417Z,93.90
2023-05-09T12:05:19.339Z,93.26
2023-05-09T12:06:51.573Z,93.07
2023-05-09T12:08:25.298Z,93.15
2023-05-09T12:09:58.151Z,93.32
2023-05-09T12:11:32.890Z,92.97
2023-05-09T12:13:05.114Z,92.89
2023-05-09T12:14:37.377Z,92.58
2023-05-09T12:16:09.664Z,92.63
2023-05-09T12:17:42.927Z,92.82
2023-05-09T12:19:15.571Z,93.08
2023-05-09T12:20:51.538Z,93.10
2023-05-09T12:22:23.785Z,92.87
2023-05-09T12:23:57.736Z,92.92
2023-05-09T12:25:29.891Z,92.94
2023-05-09T12:27:02.532Z,92.98
2023-05-09T12:28:35.032Z,92.48
2023-05-09T12:30:12.494Z,92.55
2023-05-09T12:31:45.052Z,92.63
2023-05-09T12:33:17.691Z,92.52
2023-05-09T12:34:50.318Z,92.78
2023-05-09T12:36:22.495Z,91.83
2023-05-09T12:37:59.161Z,92.08
2023-05-09T12:39:31.306Z,92.63
2023-05-09T12:41:18.909Z,93.11
2023-05-09T12:43:03.594Z,93.34
2023-05-09T12:44:35.801Z,93.27
2023-05-09T12:46:09.024Z,93.26
2023-05-09T12:47:42.308Z,93.64
2023-05-09T12:49:22.522Z,93.52
2023-05-09T12:50:54.696Z,93.95
2023-05-09T12:52:33.473Z,93.80
2023-05-09T12:54:06.402Z,93.73
2023-05-09T12:55:42.115Z,93.52
2023-05-09T12:57:25.275Z,92.75
2023-05-09T12:58:57.316Z,92.28
2023-05-09T13:00:30.135Z,91.61
2023-05-09T13:02:02.477Z,91.41
2023-05-09T13:03:40.484Z,92.07
2023-05-09T13:05:16.540Z,93.09
2023-05-09T13:06:50.668Z,93.36
2023-05-09T13:08:23.573Z,93.57
2023-05-09T13:09:57.326Z,93.63
2023-05-09T13:11:30.058Z,93.37
2023-05-09T13:13:04.789Z,93.74
2023-05-09T13:14:37.085Z,93.37
2023-05-09T13:16:10.962Z,93.01
2023-05-09T13:17:44.449Z,92.68
2023-05-09T13:19:16.769Z,91.85
2023-05-09T13:20:48.862Z,91.17
2023-05-09T13:22:21.521Z,91.63
2023-05-09T13:23:53.724Z,92.20
2023-05-09T13:25:26.013Z,92.54
2023-05-09T13:26:58.111Z,92.98
2023-05-09T13:30:03.183Z,92.25
2023-05-09T13:31:35.391Z,92.75
2023-05-09T13:33:24.044Z,92.95
2023-05-09T13:34:57.671Z,92.79
2023-05-09T13:36:29.906Z,92.81
2023-05-09T13:38:02.144Z,92.82
2023-05-09T13:39:34.255Z,92.66
2023-05-09T13:41:07.486Z,91.83
2023-05-09T13:42:40.070Z,90.98
2023-05-09T13:44:12.251Z,90.00
2023-05-09T13:45:44.357Z,90.09
2023-05-09T13:47:16.407Z,91.34
2023-05-09T13:48:48.853Z,91.24
2023-05-09T13:50:21.029Z,90.88
2023-05-09T13:51:53.091Z,90.81
2023-05-09T13:53:25.527Z,91.26
2023-05-09T13:54:57.670Z,90.95
2023-05-09T13:56:29.796Z,91.12
2023-05-09T13:58:02.135Z,90.50
2023-05-09T13:59:34.736Z,90.06
2023-05-09T14:01:07.962Z,90.14
2023-05-09T14:02:40.532Z,90.76
2023-05-09T14:04:13.172Z,88.75
2023-05-09T14:05:45.359Z,87.93
2023-05-09T14:07:18.255Z,88.05
2023-05-09T14:08:50.400Z,88.96
2023-05-09T14:10:22.600Z,89.04
2023-05-09T14:11:55.410Z,89.47
2023-05-09T14:13:27.808Z,89.65
2023-05-09T14:15:00.113Z,90.15
2023-05-09T14:16:32.267Z,90.47
2023-05-09T14:18:04.646Z,90.14
2023-05-09T14:19:37.006Z,89.92
2023-05-09T14:21:09.291Z,89.49
2023-05-09T14:22:41.584Z,89.79
2023-05-09T14:24:16.048Z,90.07
2023-05-09T14:25:48.585Z,90.67
2023-05-09T14:27:20.752Z,90.14
2023-05-09T14:28:53.770Z,89.84
2023-05-09T14:30:26.939Z,89.97
2023-05-09T14:31:59.091Z,89.83
2023-05-09T14:33:31.398Z,89.59
2023-05-09T14:35:03.623Z,89.43
2023-05-09T14:36:35.767Z,89.80
2023-05-09T14:38:07.927Z,89.98
2023-05-09T14:39:42.593Z,90.07
2023-05-09T14:41:15.561Z,90.21
2023-05-09T14:42:48.869Z,90.48
2023-05-09T14:44:20.981Z,90.67
2023-05-09T14:45:53.259Z,91.26
2023-05-09T14:47:25.556Z,90.65
2023-05-09T14:49:04.361Z,90.16
2023-05-09T14:50:36.553Z,90.21
2023-05-09T14:52:08.726Z,90.11
2023-05-09T14:53:42.236Z,89.95
2023-05-09T14:55:14.391Z,89.75
2023-05-09T14:56:46.483Z,89.89
2023-05-09T14:58:19.021Z,88.92
2023-05-09T14:59:51.198Z,88.28
2023-05-09T15:01:23.928Z,88.32
2023-05-09T15:02:56.451Z,88.09
2023-05-09T15:04:31.246Z,87.77
2023-05-09T15:06:03.808Z,87.45
2023-05-09T15:07:36.302Z,87.69
2023-05-09T15:09:08.862Z,88.06
2023-05-09T15:10:41.591Z,87.90
2023-05-09T15:12:13.757Z,87.39
2023-05-09T15:13:48.960Z,88.11
2023-05-09T15:15:23.870Z,87.62
2023-05-09T15:16:59.443Z,87.98
2023-05-09T15:18:32.007Z,88.21
2023-05-09T15:20:04.928Z,88.45
2023-05-09T15:21:37.171Z,89.18
2023-05-09T15:23:09.647Z,88.65
2023-05-09T15:24:43.212Z,88.77
2023-05-09T15:26:17.354Z,88.96
2023-05-09T15:27:52.492Z,88.64
2023-05-09T15:29:24.800Z,88.30
2023-05-09T15:30:58.402Z,88.54
2023-05-09T15:32:30.542Z,88.62
2023-05-09T15:34:02.681Z,88.63
2023-05-09T15:35:35.210Z,89.14
2023-05-09T15:37:07.417Z,89.46
2023-05-09T15:38:39.501Z,89.75
2023-05-09T15:40:14.852Z,90.15
2023-05-09T15:41:47.577Z,90.45
2023-05-09T15:43:19.781Z,90.60
2023-05-09T15:44:52.202Z,90.83
2023-05-09T15:46:24.570Z,90.81
2023-05-09T15:47:56.834Z,90.93
2023-05-09T15:49:29.095Z,90.82
2023-05-09T15:51:02.903Z,90.34
2023-05-09T15:52:35.043Z,90.35
2023-05-09T15:54:07.245Z,90.21
2023-05-09T15:55:39.604Z,90.47
2023-05-09T15:57:14.871Z,90.41
2023-05-09T15:58:47.153Z,90.37
2023-05-09T16:00:19.933Z,90.49
2023-05-09T16:01:52.481Z,90.41
2023-05-09T16:03:25.335Z,90.37
2023-05-09T16:04:57.611Z,90.62
2023-05-09T16:06:29.806Z,90.65
2023-05-09T16:08:01.976Z,90.72
2023-05-09T16:09:34.047Z,90.74
2023-05-09T16:11:08.396Z,90.69
2023-05-09T16:12:41.628Z,90.88
2023-05-09T16:14:14.213Z,90.14
2023-05-09T16:15:48.306Z,90.03
2023-05-09T16:17:20.536Z,89.86
2023-05-09T16:18:53.005Z,90.19
2023-05-09T16:20:25.127Z,90.24
2023-05-09T16:21:57.378Z,90.61
2023-05-09T16:23:29.516Z,90.81
2023-05-09T16:25:01.664Z,90.63
2023-05-09T16:26:33.820Z,90.71
2023-05-09T16:28:07.492Z,90.57
2023-05-09T16:29:39.744Z,90.78
2023-05-09T16:31:11.907Z,90.78
2023-05-09T16:32:44.156Z,90.85
2023-05-09T16:34:16.301Z,90.66
2023-05-09T16:35:48.483Z,90.60
2023-05-09T16:37:20.815Z,90.89
2023-05-09T16:38:53.042Z,90.99
2023-05-09T16:40:25.328Z,91.30
2023-05-09T16:41:58.516Z,91.08
2023-05-09T16:43:31.280Z,90.92
2023-05-09T16:45:03.565Z,90.68
2023-05-09T16:46:35.673Z,91.05
2023-05-09T16:48:07.971Z,90.42
2023-05-09T16:49:40.230Z,90.24
2023-05-09T16:51:12.501Z,90.38
2023-05-09T16:52:44.693Z,90.53
2023-05-09T16:54:16.879Z,90.75
2023-05-09T16:55:49.864Z,90.30
2023-05-09T16:57:22.150Z,90.38
2023-05-09T16:58:54.299Z,90.06
2023-05-09T17:00:26.582Z,90.28
2023-05-09T17:01:59.115Z,90.48
2023-05-09T17:03:31.230Z,90.26
2023-05-09T17:05:04.729Z,90.36
2023-05-09T17:06:36.918Z,90.45
2023-05-09T17:08:09.291Z,90.74
2023-05-09T17:09:41.571Z,90.59
2023-05-09T17:11:13.832Z,90.77
2023-05-09T17:12:46.033Z,90.92
2023-05-09T17:14:18.304Z,90.97
2023-05-09T17:15:53.112Z,90.89
2023-05-09T17:17:25.274Z,90.75
2023-05-09T17:18:57.370Z,91.05
2023-05-09T17:20:32.300Z,91.06
2023-05-09T17:22:06.148Z,91.01
2023-05-09T17:23:38.339Z,91.22
2023-05-09T17:25:10.670Z,91.21
2023-05-09T17:26:43.308Z,91.08
2023-05-09T17:28:15.441Z,91.22
2023-05-09T17:29:47.856Z,91.29
2023-05-09T17:31:20.373Z,91.50
2023-05-09T17:32:52.601Z,91.61
2023-05-09T17:34:24.998Z,91.99
2023-05-09T17:35:57.759Z,92.03
2023-05-09T17:37:29.943Z,92.35
2023-05-09T17:39:02.050Z,92.05
2023-05-09T17:40:37.307Z,92.23
2023-05-09T17:42:09.612Z,91.89
2023-05-09T17:43:41.773Z,91.89
2023-05-09T17:45:13.954Z,92.14
2023-05-09T17:46:46.086Z,91.93
2023-05-09T17:48:18.647Z,92.10
2023-05-09T17:49:50.842Z,91.93
2023-05-09T17:51:23.031Z,92.08
2023-05-09T17:52:56.959Z,92.07
2023-05-09T17:54:29.339Z,92.43
2023-05-09T17:56:01.552Z,92.48
2023-05-09T17:57:33.708Z,92.58
2023-05-09T17:59:05.910Z,92.53
2023-05-09T18:00:38.103Z,92.77
2023-05-09T18:02:10.720Z,92.86
2023-05-09T18:03:43.081Z,92.95
2023-05-09T18:05:15.368Z,93.07
2023-05-09T18:06:49.543Z,93.19
2023-05-09T18:08:21.740Z,93.31
2023-05-09T18:09:53.833Z,92.94
2023-05-09T18:11:26.692Z,93.13
2023-05-09T18:12:58.903Z,92.53
2023-05-09T18:14:31.019Z,92.53
2023-05-09T18:16:03.255Z,92.13
2023-05-09T18:17:35.370Z,92.16
2023-05-09T18:19:07.674Z,92.03
2023-05-09T18:20:39.925Z,91.94
2023-05-09T18:22:12.300Z,92.10
2023-05-09T18:23:44.415Z,92.57
2023-05-09T18:25:17.531Z,92.53
2023-05-09T18:26:49.771Z,92.62
2023-05-09T18:28:25.662Z,92.99
2023-05-09T18:29:57.977Z,92.99
2023-05-09T18:31:31.727Z,93.10
2023-05-09T18:33:04.175Z,93.02
2023-05-09T18:34:36.502Z,92.89
2023-05-09T18:36:10.700Z,93.02
2023-05-09T18:37:43.388Z,93.01
2023-05-09T18:39:15.634Z,93.13
2023-05-09T18:40:48.742Z,93.19
2023-05-09T18:42:21.001Z,93.01
2023-05-09T18:43:53.676Z,93.28
2023-05-09T18:45:25.928Z,93.07
2023-05-09T18:46:58.416Z,93.28
2023-05-09T18:48:30.835Z,93.17
2023-05-09T18:50:04.659Z,93.38
2023-05-09T18:51:37.006Z,93.15
2023-05-09T18:53:09.513Z,93.09
2023-05-09T18:54:42.568Z,93.12
2023-05-09T18:56:14.904Z,93.23
2023-05-09T18:57:47.242Z,93.21
2023-05-09T18:59:19.302Z,93.15
2023-05-09T19:00:53.263Z,93.19
2023-05-09T19:02:25.883Z,93.24
2023-05-09T19:03:58.174Z,93.34
2023-05-09T19:05:30.709Z,93.52
2023-05-09T19:07:02.838Z,93.63
2023-05-09T19:08:34.976Z,93.80
2023-05-09T19:10:10.296Z,94.08
2023-05-09T19:11:42.542Z,94.03
2023-05-09T19:13:16.545Z,93.90
2023-05-09T19:14:49.452Z,93.83
2023-05-09T19:16:22.873Z,93.92
2023-05-09T19:17:54.894Z,93.75
2023-05-09T19:19:27.731Z,94.11
2023-05-09T19:21:00.149Z,94.06
2023-05-09T19:22:32.610Z,94.07
2023-05-09T19:24:06.652Z,94.00
2023-05-09T19:25:38.802Z,93.87
2023-05-09T19:28:43.947Z,94.04
2023-05-09T19:30:16.778Z,94.32
2023-05-09T19:31:49.288Z,94.22
2023-05-09T19:33:21.417Z,94.50
2023-05-09T19:34:53.755Z,94.66
2023-05-09T19:36:26.043Z,94.50
2023-05-09T19:37:58.978Z,94.62
2023-05-09T19:39:31.410Z,94.76
2023-05-09T19:41:03.672Z,94.46
2023-05-09T19:42:38.215Z,94.66
2023-05-09T19:44:10.525Z,94.46
2023-05-09T19:45:42.818Z,94.47
2023-05-09T19:47:14.929Z,94.57
2023-05-09T19:48:47.084Z,94.74
2023-05-09T19:50:20.194Z,94.75
2023-05-09T19:51:52.377Z,94.62
2023-05-09T19:53:24.820Z,94.60
2023-05-09T19:54:57.003Z,94.52
2023-05-09T19:56:29.221Z,94.11
2023-05-09T19:58:01.348Z,94.00
2023-05-09T19:59:33.524Z,93.99
2023-05-09T20:02:54.766Z,93.68
2023-05-09T20:04:27.027Z,93.73
2023-05-09T20:05:59.281Z,93.65
2023-05-09T20:07:31.557Z,93.51
2023-05-09T20:09:03.690Z,93.45
2023-05-09T20:10:35.872Z,93.67
2023-05-09T20:12:08.660Z,93.48
2023-05-09T20:13:40.918Z,93.73
2023-05-09T20:15:14.045Z,93.77
2023-05-09T20:16:46.281Z,93.84
2023-05-09T20:18:19.089Z,93.82
2023-05-09T20:19:51.743Z,93.87
2023-05-09T20:21:24.067Z,93.72
2023-05-09T20:22:57.216Z,93.66
2023-05-09T20:24:29.420Z,93.84
2023-05-09T20:26:01.905Z,93.76
2023-05-09T20:27:35.872Z,93.55
2023-05-09T20:29:08.146Z,93.59
2023-05-09T20:30:40.290Z,93.49
2023-05-09T20:32:12.478Z,93.71
2023-05-09T20:33:44.619Z,93.38
2023-05-09T20:35:16.756Z,93.24
2023-05-09T20:36:52.617Z,93.39
2023-05-09T20:38:24.851Z,93.63
2023-05-09T20:39:57.126Z,93.93
2023-05-09T20:41:29.334Z,94.00
2023-05-09T20:43:01.447Z,94.61
2023-05-09T20:44:34.515Z,94.24
2023-05-09T20:46:07.329Z,94.22
2023-05-09T20:47:40.326Z,94.16
2023-05-09T20:49:13.024Z,94.23
2023-05-09T20:50:45.098Z,93.87
2023-05-09T20:52:17.338Z,93.95
2023-05-09T20:53:49.592Z,93.68
2023-05-09T20:55:21.752Z,94.00
2023-05-09T20:56:54.099Z,94.10
2023-05-09T20:58:26.375Z,93.88
2023-05-09T20:59:58.490Z,93.98
2023-05-09T21:01:32.957Z,94.19
2023-05-09T21:03:05.290Z,94.15
2023-05-09T21:04:37.671Z,94.25
2023-05-09T21:06:09.844Z,94.01
2023-05-09T21:07:41.845Z,93.95
2023-05-09T21:09:14.124Z,94.09
2023-05-09T21:10:47.850Z,94.16
2023-05-09T21:12:20.242Z,94.25
2023-05-09T21:13:52.378Z,93.94
2023-05-09T21:15:24.526Z,93.77
2023-05-09T21:16:58.543Z,94.07
2023-05-09T21:18:30.909Z,94.01
2023-05-09T21:20:03.035Z,93.87
2023-05-09T21:21:35.394Z,93.99
2023-05-09T21:23:07.511Z,94.16
2023-05-09T21:24:42.955Z,94.08
2023-05-09T21:26:15.534Z,94.34
2023-05-09T21:27:47.745Z,94.51
2023-05-09T21:29:19.931Z,94.64